createdAt,value
2023-05-05T00:02:23.593Z,79.97
2023-05-05T00:04:50.052Z,81.48
2023-05-05T00:07:16.511Z,80.84
2023-05-05T00:09:43.162Z,81.94
2023-05-05T00:12:09.587Z,80.72
2023-05-05T00:14:36.069Z,81.60
2023-05-05T00:17:02.563Z,80.92
2023-05-05T00:19:28.992Z,81.17
2023-05-05T00:21:55.598Z,80.60
2023-05-05T00:24:22.000Z,80.39
2023-05-05T00:26:48.386Z,81.87
2023-05-05T00:29:14.899Z,80.58
2023-05-05T00:31:41.411Z,80.81
2023-05-05T00:34:07.930Z,81.35
2023-05-05T00:36:34.390Z,82.42
2023-05-05T00:39:01.115Z,81.67
2023-05-05T00:41:27.581Z,81.68
2023-05-05T00:43:54.054Z,81.91
2023-05-05T00:46:26.377Z,82.69
2023-05-05T00:48:53.076Z,83.34
2023-05-05T00:51:20.555Z,81.41
2023-05-05T00:53:47.981Z,82.71
2023-05-05T00:56:16.053Z,82.86
2023-05-05T00:58:43.410Z,82.87
2023-05-05T01:01:11.315Z,83.23
2023-05-05T01:03:38.831Z,83.65
2023-05-05T01:06:20.822Z,84.18
2023-05-05T01:09:01.732Z,83.52
2023-05-05T01:11:41.241Z,85.12
2023-05-05T01:14:17.381Z,84.31
2023-05-05T01:16:52.950Z,85.91
2023-05-05T01:19:37.991Z,85.63
2023-05-05T01:22:07.430Z,85.84
2023-05-05T01:24:42.939Z,85.38
2023-05-05T01:27:21.554Z,85.47
2023-05-05T01:30:25.770Z,85.49
2023-05-05T01:32:56.676Z,86.36
2023-05-05T01:35:28.706Z,85.77
2023-05-05T01:38:17.402Z,85.80
2023-05-05T01:40:47.900Z,85.94
2023-05-05T01:43:15.987Z,87.39
2023-05-05T01:45:43.600Z,85.21
2023-05-05T01:48:12.364Z,86.00
2023-05-05T01:50:41.733Z,86.16
2023-05-05T01:53:09.682Z,87.58
2023-05-05T01:55:36.811Z,88.04
2023-05-05T01:58:04.447Z,86.65
2023-05-05T02:00:31.716Z,87.05
2023-05-05T02:02:59.820Z,88.28
2023-05-05T02:05:27.173Z,87.31
2023-05-05T02:07:57.515Z,87.33
2023-05-05T02:10:24.199Z,88.01
2023-05-05T02:12:51.145Z,87.82
2023-05-05T02:15:18.631Z,87.35
2023-05-05T02:17:45.542Z,87.24
2023-05-05T02:20:12.906Z,87.73
2023-05-05T02:22:39.948Z,87.18
2023-05-05T02:25:06.911Z,86.77
2023-05-05T02:27:35.407Z,87.07
2023-05-05T02:30:08.002Z,86.85
2023-05-05T02:32:37.794Z,87.57
2023-05-05T02:35:12.631Z,87.23
2023-05-05T02:37:39.955Z,89.86
2023-05-05T02:40:08.473Z,89.65
2023-05-05T02:42:36.769Z,90.26
2023-05-05T02:45:07.655Z,90.02
2023-05-05T02:47:36.606Z,90.06
2023-05-05T02:50:04.258Z,89.14
2023-05-05T02:52:31.998Z,89.50
2023-05-05T02:54:59.326Z,89.16
2023-05-05T02:57:37.869Z,89.06
2023-05-05T03:00:12.672Z,89.15
2023-05-05T03:02:54.469Z,89.28
2023-05-05T03:05:25.492Z,89.32
2023-05-05T03:08:09.940Z,89.66
2023-05-05T03:10:44.874Z,90.52
2023-05-05T03:13:11.835Z,89.69
2023-05-05T03:15:45.168Z,88.34
2023-05-05T03:18:12.131Z,89.57
2023-05-05T03:20:42.357Z,89.57
2023-05-05T03:23:08.953Z,91.26
2023-05-05T03:25:45.940Z,90.57
2023-05-05T03:28:13.448Z,89.13
2023-05-05T03:30:39.954Z,90.03
2023-05-05T03:33:06.552Z,90.72
2023-05-05T03:35:33.563Z,90.32
2023-05-05T03:37:59.959Z,91.41
2023-05-05T03:40:36.137Z,90.29
2023-05-05T03:43:09.713Z,89.42
2023-05-05T03:45:36.287Z,90.94
2023-05-05T03:48:03.052Z,92.27
2023-05-05T03:50:29.528Z,92.05
2023-05-05T03:52:56.059Z,90.74
2023-05-05T03:55:22.598Z,91.28
2023-05-05T03:57:48.978Z,90.88
2023-05-05T04:00:15.999Z,89.14
2023-05-05T04:02:43.470Z,89.38
2023-05-05T04:05:10.033Z,91.01
2023-05-05T04:07:36.514Z,90.76
2023-05-05T04:10:02.956Z,90.92
2023-05-05T04:12:29.339Z,90.28
2023-05-05T04:14:55.884Z,90.88
2023-05-05T04:17:22.279Z,90.47
2023-05-05T04:19:48.669Z,90.39
2023-05-05T04:22:15.152Z,91.18
2023-05-05T04:24:41.577Z,90.21
2023-05-05T04:27:07.974Z,89.84
2023-05-05T04:29:34.451Z,90.22
2023-05-05T04:32:01.055Z,88.33
2023-05-05T04:34:27.520Z,83.35
2023-05-05T04:36:54.224Z,81.23
2023-05-05T04:39:20.632Z,82.30
2023-05-05T04:41:47.243Z,83.21
2023-05-05T04:44:13.669Z,82.89
2023-05-05T04:46:40.190Z,82.64
2023-05-05T04:49:06.884Z,79.04
2023-05-05T04:51:33.394Z,78.84
2023-05-05T04:53:59.955Z,79.83
2023-05-05T04:56:26.420Z,80.14
2023-05-05T04:58:52.862Z,79.19
2023-05-05T05:01:19.282Z,80.90
2023-05-05T05:03:45.943Z,83.97
2023-05-05T05:06:12.507Z,83.78
2023-05-05T05:08:38.968Z,85.45
2023-05-05T05:11:05.429Z,85.69
2023-05-05T05:13:32.348Z,86.78
2023-05-05T05:15:58.814Z,86.79
2023-05-05T05:18:25.238Z,87.02
2023-05-05T05:20:51.675Z,87.20
2023-05-05T05:23:18.110Z,86.78
2023-05-05T05:25:44.663Z,86.75
2023-05-05T05:28:11.241Z,87.29
2023-05-05T05:30:37.667Z,88.13
2023-05-05T05:33:04.109Z,88.09
2023-05-05T05:35:31.478Z,89.33
2023-05-05T05:37:58.006Z,88.01
2023-05-05T05:40:24.452Z,87.56
2023-05-05T05:42:50.894Z,87.78
2023-05-05T05:45:17.415Z,87.71
2023-05-05T05:47:43.890Z,87.92
2023-05-05T05:50:11.056Z,88.48
2023-05-05T05:52:37.748Z,88.79
2023-05-05T05:55:04.560Z,89.16
2023-05-05T05:57:31.343Z,88.41
2023-05-05T05:59:58.844Z,88.85
2023-05-05T06:02:28.481Z,89.60
2023-05-05T06:04:55.135Z,90.07
2023-05-05T06:07:21.560Z,89.54
2023-05-05T06:09:47.980Z,90.25
2023-05-05T06:12:14.409Z,89.91
2023-05-05T06:14:41.143Z,89.69
2023-05-05T06:17:07.547Z,90.77
2023-05-05T06:19:34.465Z,90.30
2023-05-05T06:22:00.928Z,89.57
2023-05-05T06:24:27.309Z,89.34
2023-05-05T06:26:53.823Z,88.83
2023-05-05T06:29:20.321Z,88.31
2023-05-05T06:31:47.031Z,87.25
2023-05-05T06:34:13.534Z,87.11
2023-05-05T06:36:40.006Z,86.25
2023-05-05T06:39:06.432Z,86.89
2023-05-05T06:41:32.856Z,85.55
2023-05-05T06:43:59.352Z,85.06
2023-05-05T06:46:26.312Z,83.66
2023-05-05T06:48:52.962Z,82.06
2023-05-05T06:51:19.730Z,81.32
2023-05-05T06:53:46.182Z,78.93
2023-05-05T06:56:12.698Z,78.60
2023-05-05T06:58:39.153Z,75.94
2023-05-05T07:01:05.789Z,75.98
2023-05-05T07:03:32.228Z,76.41
2023-05-05T07:05:58.655Z,76.93
2023-05-05T07:08:25.382Z,76.60
2023-05-05T07:10:52.006Z,76.01
2023-05-05T07:13:18.541Z,73.84
2023-05-05T07:15:46.540Z,72.66
2023-05-05T07:18:14.155Z,72.09
2023-05-05T07:20:40.996Z,72.61
2023-05-05T07:23:07.505Z,71.23
2023-05-05T07:25:33.987Z,70.16
2023-05-05T07:28:00.597Z,70.65
2023-05-05T07:30:27.100Z,71.08
2023-05-05T07:32:54.734Z,69.92
2023-05-05T07:35:21.461Z,68.56
2023-05-05T07:37:47.886Z,69.95
2023-05-05T07:40:14.435Z,71.11
2023-05-05T07:42:40.997Z,71.13
2023-05-05T07:45:07.878Z,71.56
2023-05-05T07:47:34.362Z,71.18
2023-05-05T07:50:01.420Z,70.57
2023-05-05T07:52:43.602Z,71.27
2023-05-05T07:55:11.620Z,70.66
2023-05-05T07:57:38.682Z,70.87
2023-05-05T08:00:05.940Z,71.33
2023-05-05T08:02:32.566Z,71.54
2023-05-05T08:04:59.041Z,69.10
2023-05-05T08:07:25.499Z,68.52
2023-05-05T08:09:51.948Z,69.52
2023-05-05T08:12:19.112Z,68.67
2023-05-05T08:14:45.533Z,66.54
2023-05-05T08:17:12.035Z,67.14
2023-05-05T08:19:38.438Z,67.19
2023-05-05T08:22:04.928Z,65.56
2023-05-05T08:24:31.427Z,66.65
2023-05-05T08:26:57.940Z,64.56
2023-05-05T08:29:24.366Z,65.80
2023-05-05T08:31:51.158Z,63.68
2023-05-05T08:34:17.832Z,62.47
2023-05-05T08:36:44.246Z,62.92
2023-05-05T08:39:10.693Z,61.81
2023-05-05T08:41:37.191Z,61.82
2023-05-05T08:44:03.717Z,62.01
2023-05-05T08:46:31.211Z,61.24
2023-05-05T08:48:58.833Z,59.70
2023-05-05T08:51:28.456Z,60.32
2023-05-05T08:53:54.803Z,60.53
2023-05-05T08:56:24.782Z,61.23
2023-05-05T08:58:51.515Z,59.88
2023-05-05T09:01:18.539Z,57.56
2023-05-05T09:03:46.249Z,57.34
2023-05-05T09:06:12.713Z,56.94
2023-05-05T09:08:39.329Z,57.23
2023-05-05T09:11:06.206Z,56.25
2023-05-05T09:13:32.781Z,56.26
2023-05-05T09:15:59.523Z,56.31
2023-05-05T09:18:26.414Z,54.79
2023-05-05T09:20:53.078Z,55.45
2023-05-05T09:23:20.178Z,57.34
2023-05-05T09:25:48.220Z,56.48
2023-05-05T09:28:17.640Z,54.02
2023-05-05T09:30:46.779Z,51.85
2023-05-05T09:33:13.884Z,51.93
2023-05-05T09:35:51.114Z,52.61
2023-05-05T09:38:18.372Z,51.83
2023-05-05T09:40:48.863Z,50.41
2023-05-05T09:43:16.288Z,49.81
2023-05-05T09:45:43.264Z,51.08
2023-05-05T09:48:29.268Z,51.22
2023-05-05T09:50:56.519Z,51.40
2023-05-05T09:53:23.987Z,52.08
2023-05-05T09:55:58.168Z,50.49
2023-05-05T09:58:26.354Z,49.95
2023-05-05T10:00:53.944Z,51.99
2023-05-05T10:03:20.872Z,50.44
2023-05-05T10:05:59.549Z,47.94
2023-05-05T10:08:28.085Z,49.25
2023-05-05T10:10:59.466Z,48.66
2023-05-05T10:13:26.463Z,47.44
2023-05-05T10:15:54.793Z,48.76
2023-05-05T10:18:23.500Z,49.94
2023-05-05T10:20:57.537Z,47.32
2023-05-05T10:23:26.689Z,46.44
2023-05-05T10:25:55.681Z,47.91
2023-05-05T10:28:50.812Z,47.80
2023-05-05T10:31:26.433Z,47.45
2023-05-05T10:33:55.937Z,46.77
2023-05-05T10:36:23.210Z,47.47
2023-05-05T10:38:50.722Z,48.80
2023-05-05T10:41:18.547Z,49.33
2023-05-05T10:43:45.847Z,48.62
2023-05-05T10:46:12.616Z,48.14
2023-05-05T10:48:56.121Z,48.97
2023-05-05T10:51:40.053Z,49.27
2023-05-05T10:54:17.952Z,48.21
2023-05-05T10:56:44.562Z,47.62
2023-05-05T10:59:39.682Z,47.28
2023-05-05T11:02:24.598Z,46.50
2023-05-05T11:05:09.705Z,47.55
2023-05-05T11:07:37.136Z,46.05
2023-05-05T11:10:07.948Z,45.82
2023-05-05T11:13:01.892Z,46.33
2023-05-05T11:15:28.730Z,47.53
2023-05-05T11:17:56.595Z,47.93
2023-05-05T11:20:35.747Z,48.63
2023-05-05T11:23:02.051Z,47.23
2023-05-05T11:25:34.503Z,47.68
2023-05-05T11:28:11.512Z,48.36
2023-05-05T11:30:59.665Z,48.24
2023-05-05T11:33:29.941Z,46.46
2023-05-05T11:36:07.342Z,46.30
2023-05-05T11:38:52.871Z,45.48
2023-05-05T11:41:31.930Z,46.12
2023-05-05T11:44:20.572Z,46.42
2023-05-05T11:46:53.066Z,45.05
2023-05-05T11:49:38.729Z,44.61
2023-05-05T11:52:08.120Z,42.90
2023-05-05T11:54:36.119Z,43.46
2023-05-05T11:57:05.407Z,44.04
2023-05-05T11:59:32.742Z,44.77
2023-05-05T12:01:59.522Z,44.54
2023-05-05T12:04:26.122Z,45.77
2023-05-05T12:06:52.535Z,45.08
2023-05-05T12:09:20.192Z,46.09
2023-05-05T12:11:54.256Z,44.99
2023-05-05T12:14:21.405Z,44.48
2023-05-05T12:17:14.369Z,46.11
2023-05-05T12:19:48.661Z,46.15
2023-05-05T12:22:19.515Z,46.15
2023-05-05T12:24:54.436Z,46.26
2023-05-05T12:27:21.633Z,45.61
2023-05-05T12:29:48.161Z,45.98
2023-05-05T12:32:22.469Z,46.76
2023-05-05T12:34:50.745Z,46.30
2023-05-05T12:37:19.015Z,47.91
2023-05-05T12:39:45.594Z,47.96
2023-05-05T12:42:12.134Z,48.50
2023-05-05T12:44:39.159Z,48.78
2023-05-05T12:47:06.997Z,48.30
2023-05-05T12:49:50.696Z,49.35
2023-05-05T12:52:18.240Z,50.40
2023-05-05T12:54:55.087Z,51.10
2023-05-05T12:57:22.294Z,51.81
2023-05-05T12:59:49.152Z,52.07
2023-05-05T13:02:16.339Z,53.77
2023-05-05T13:04:50.642Z,54.71
2023-05-05T13:07:19.499Z,56.37
2023-05-05T13:09:48.024Z,56.29
2023-05-05T13:12:15.648Z,57.58
2023-05-05T13:14:42.224Z,60.85
2023-05-05T13:17:09.137Z,59.65
2023-05-05T13:19:41.582Z,58.99
2023-05-05T13:22:09.119Z,60.70
2023-05-05T13:24:49.827Z,60.87
2023-05-05T13:27:18.851Z,63.65
2023-05-05T13:29:45.310Z,65.31
2023-05-05T13:32:11.787Z,63.39
2023-05-05T13:34:39.247Z,65.62
2023-05-05T13:37:06.133Z,67.55
2023-05-05T13:39:32.662Z,66.77
2023-05-05T13:41:59.126Z,71.87
2023-05-05T13:44:25.614Z,79.02
2023-05-05T13:46:52.047Z,80.60
2023-05-05T13:49:18.526Z,84.55
2023-05-05T13:51:46.704Z,83.73
2023-05-05T13:54:13.254Z,88.83
2023-05-05T13:56:39.828Z,86.14
2023-05-05T13:59:06.245Z,84.71
2023-05-05T14:01:32.766Z,84.54
2023-05-05T14:03:59.454Z,85.73
2023-05-05T14:06:26.364Z,85.72
2023-05-05T14:08:52.876Z,85.81
2023-05-05T14:11:20.545Z,89.65
2023-05-05T14:13:47.433Z,87.92
2023-05-05T14:16:14.164Z,88.98
2023-05-05T14:18:40.934Z,87.93
2023-05-05T14:21:07.507Z,88.91
2023-05-05T14:23:33.942Z,90.18
2023-05-05T14:26:00.750Z,90.12
2023-05-05T14:28:27.151Z,88.09
2023-05-05T14:30:53.692Z,87.78
2023-05-05T14:33:20.250Z,89.92
2023-05-05T14:35:46.646Z,88.47
2023-05-05T14:38:13.074Z,89.69
2023-05-05T14:40:39.517Z,93.04
2023-05-05T14:43:06.124Z,91.92
2023-05-05T14:45:32.686Z,90.48
2023-05-05T14:47:59.223Z,90.25
2023-05-05T14:50:25.686Z,90.08
2023-05-05T14:52:52.347Z,90.69
2023-05-05T14:55:18.897Z,90.54
2023-05-05T14:57:45.300Z,92.35
2023-05-05T15:00:12.689Z,91.74
2023-05-05T15:02:39.140Z,90.11
2023-05-05T15:05:06.181Z,91.06
2023-05-05T15:07:32.675Z,90.30
2023-05-05T15:09:59.109Z,90.49
2023-05-05T15:12:25.971Z,92.90
2023-05-05T15:14:52.397Z,89.99
2023-05-05T15:17:18.830Z,88.97
2023-05-05T15:19:45.305Z,92.49
2023-05-05T15:22:11.731Z,91.11
2023-05-05T15:24:38.276Z,89.17
2023-05-05T15:27:04.746Z,89.48
2023-05-05T15:29:31.263Z,88.48
2023-05-05T15:31:57.861Z,88.79
2023-05-05T15:34:24.334Z,88.24
2023-05-05T15:36:50.746Z,86.88
2023-05-05T15:39:17.704Z,87.82
2023-05-05T15:41:44.154Z,84.37
2023-05-05T15:44:12.164Z,85.10
2023-05-05T15:46:39.727Z,86.07
2023-05-05T15:49:06.316Z,87.27
2023-05-05T15:51:32.751Z,85.66
2023-05-05T15:54:00.186Z,85.09
2023-05-05T15:56:29.578Z,83.99
2023-05-05T15:58:56.687Z,83.91
2023-05-05T16:01:23.252Z,82.86
2023-05-05T16:03:49.740Z,82.44
2023-05-05T16:06:16.232Z,82.10
2023-05-05T16:08:42.723Z,83.20
2023-05-05T16:11:09.279Z,81.08
2023-05-05T16:13:35.781Z,82.11
2023-05-05T16:16:02.192Z,81.65
2023-05-05T16:18:28.621Z,83.34
2023-05-05T16:20:55.083Z,84.06
2023-05-05T16:23:22.571Z,82.21
2023-05-05T16:25:49.053Z,82.51
2023-05-05T16:28:15.483Z,82.42
2023-05-05T16:30:43.162Z,82.41
2023-05-05T16:33:09.688Z,82.21
2023-05-05T16:35:36.198Z,81.44
2023-05-05T16:38:02.632Z,82.67
2023-05-05T16:40:29.347Z,82.36
2023-05-05T16:42:55.788Z,82.70
2023-05-05T16:45:22.558Z,82.83
2023-05-05T16:47:49.079Z,83.03
2023-05-05T16:50:17.292Z,83.32
2023-05-05T16:52:43.811Z,84.71
2023-05-05T16:55:10.470Z,83.85
2023-05-05T16:57:37.088Z,83.82
2023-05-05T17:00:05.141Z,84.61
2023-05-05T17:02:31.667Z,84.80
2023-05-05T17:04:58.169Z,83.47
2023-05-05T17:07:24.650Z,83.42
2023-05-05T17:09:51.104Z,82.83
2023-05-05T17:12:17.638Z,81.73
2023-05-05T17:14:45.406Z,81.83
2023-05-05T17:17:12.182Z,86.25
2023-05-05T17:19:38.769Z,85.03
2023-05-05T17:22:05.341Z,85.83
2023-05-05T17:24:31.751Z,84.94
2023-05-05T17:26:58.290Z,86.21
2023-05-05T17:29:24.719Z,85.98
2023-05-05T17:31:51.593Z,86.56
2023-05-05T17:34:18.115Z,88.87
2023-05-05T17:36:44.593Z,82.77
2023-05-05T17:39:11.485Z,84.45
2023-05-05T17:41:37.942Z,84.24
2023-05-05T17:44:04.628Z,81.47
2023-05-05T17:46:31.070Z,81.90
2023-05-05T17:48:57.555Z,82.79
2023-05-05T17:51:24.062Z,83.10
2023-05-05T17:53:50.573Z,82.09
2023-05-05T17:56:17.021Z,83.05
2023-05-05T17:58:43.458Z,82.94
2023-05-05T18:01:13.532Z,84.44
2023-05-05T18:03:41.057Z,84.64
2023-05-05T18:06:07.699Z,84.96
2023-05-05T18:08:34.149Z,83.69
2023-05-05T18:11:01.730Z,85.05
2023-05-05T18:13:28.242Z,83.78
2023-05-05T18:15:54.682Z,84.34
2023-05-05T18:18:21.212Z,84.58
2023-05-05T18:20:47.791Z,85.64
2023-05-05T18:23:14.257Z,85.87
2023-05-05T18:25:41.430Z,85.57
2023-05-05T18:28:07.904Z,86.22
2023-05-05T18:30:35.599Z,85.69
2023-05-05T18:33:02.279Z,86.16
2023-05-05T18:35:29.256Z,85.26
2023-05-05T18:37:56.228Z,85.91
2023-05-05T18:40:22.966Z,85.83
2023-05-05T18:42:49.604Z,85.79
2023-05-05T18:45:16.063Z,86.62
2023-05-05T18:47:42.532Z,86.20
2023-05-05T18:50:09.922Z,86.00
2023-05-05T18:52:36.360Z,87.28
2023-05-05T18:55:02.854Z,88.39
2023-05-05T18:57:29.644Z,87.36
2023-05-05T18:59:56.086Z,89.65
2023-05-05T19:02:22.516Z,89.54
2023-05-05T19:04:49.293Z,90.31
2023-05-05T19:07:27.660Z,92.56
2023-05-05T19:10:00.662Z,92.32
2023-05-05T19:12:27.122Z,93.63
2023-05-05T19:14:53.549Z,92.95
2023-05-05T19:17:19.948Z,92.06
2023-05-05T19:19:46.357Z,92.42
2023-05-05T19:22:12.827Z,93.55
2023-05-05T19:24:39.239Z,91.99
2023-05-05T19:27:07.031Z,93.01
2023-05-05T19:29:33.741Z,93.47
2023-05-05T19:32:00.259Z,94.58
2023-05-05T19:34:26.916Z,94.85
2023-05-05T19:36:53.359Z,93.36
2023-05-05T19:39:19.853Z,93.50
2023-05-05T19:41:46.471Z,93.93
2023-05-05T19:44:12.982Z,94.95
2023-05-05T19:46:39.550Z,95.84
2023-05-05T19:49:06.178Z,95.20
2023-05-05T19:51:32.585Z,95.13
2023-05-05T19:53:59.443Z,96.29
2023-05-05T19:56:26.187Z,96.50
2023-05-05T19:59:00.780Z,96.09
2023-05-05T20:01:28.616Z,96.02
2023-05-05T20:03:56.367Z,95.41
2023-05-05T20:06:23.229Z,95.63
2023-05-05T20:08:49.957Z,95.27
2023-05-05T20:11:16.940Z,96.25
2023-05-05T20:13:43.788Z,95.10
2023-05-05T20:16:10.410Z,95.54
2023-05-05T20:18:36.879Z,95.14
2023-05-05T20:21:03.522Z,95.77
2023-05-05T20:23:30.335Z,95.78
2023-05-05T20:25:56.723Z,94.42
2023-05-05T20:28:23.375Z,95.75
2023-05-05T20:30:49.775Z,95.31
2023-05-05T20:33:16.444Z,95.56
2023-05-05T20:35:42.909Z,95.53
2023-05-05T20:38:09.779Z,96.22
2023-05-05T20:40:36.777Z,95.54
2023-05-05T20:43:03.261Z,95.13
2023-05-05T20:45:31.632Z,95.49
2023-05-05T20:47:58.572Z,96.04
2023-05-05T20:50:25.151Z,96.80
2023-05-05T20:52:51.570Z,97.20
2023-05-05T20:55:17.983Z,96.63
2023-05-05T20:57:44.391Z,96.92
2023-05-05T21:00:11.435Z,95.86
2023-05-05T21:02:38.173Z,96.87
2023-05-05T21:05:05.226Z,96.23
2023-05-05T21:07:34.152Z,96.91
2023-05-05T21:10:04.830Z,97.07
2023-05-05T21:12:31.556Z,96.93
2023-05-05T21:14:58.798Z,97.42
2023-05-05T21:17:26.103Z,98.39
2023-05-05T21:19:53.207Z,98.91
2023-05-05T21:22:19.830Z,99.99
2023-05-05T21:24:46.275Z,98.95
2023-05-05T21:27:13.402Z,98.53
2023-05-05T21:29:39.835Z,98.05
2023-05-05T21:32:10.644Z,97.61
2023-05-05T21:34:38.312Z,97.75
2023-05-05T21:37:05.124Z,97.53
2023-05-05T21:39:33.008Z,97.18
2023-05-05T21:42:00.623Z,98.11
2023-05-05T21:44:28.146Z,97.59
2023-05-05T21:46:55.143Z,96.80
2023-05-05T21:49:21.692Z,96.76
2023-05-05T21:51:48.271Z,96.10
2023-05-05T21:54:14.741Z,97.14
2023-05-05T21:56:41.295Z,97.77
2023-05-05T21:59:07.753Z,98.01
2023-05-05T22:01:34.695Z,96.84
2023-05-05T22:04:01.539Z,96.21
2023-05-05T22:06:28.049Z,96.89
2023-05-05T22:08:54.502Z,97.73
2023-05-05T22:11:21.625Z,98.00
2023-05-05T22:13:48.039Z,97.94
2023-05-05T22:16:18.429Z,97.38
2023-05-05T22:18:45.229Z,97.63
2023-05-05T22:21:11.681Z,97.96
2023-05-05T22:23:39.005Z,97.56
2023-05-05T22:26:05.518Z,97.83
2023-05-05T22:28:31.945Z,98.40
2023-05-05T22:30:58.370Z,98.56
2023-05-05T22:33:24.974Z,98.72
2023-05-05T22:35:51.964Z,98.01
2023-05-05T22:38:18.407Z,99.06
2023-05-05T22:40:45.136Z,99.31
2023-05-05T22:43:11.695Z,98.79
2023-05-05T22:45:38.502Z,99.46
2023-05-05T22:48:05.374Z,99.25
2023-05-05T22:50:31.917Z,100.00
2023-05-05T22:52:58.336Z,99.19
2023-05-05T22:55:24.893Z,99.78
2023-05-05T22:57:52.541Z,98.74
2023-05-05T23:00:19.131Z,99.50
2023-05-05T23:02:45.878Z,99.43
2023-05-05T23:05:12.629Z,99.42
2023-05-05T23:07:39.268Z,98.84
2023-05-05T23:10:06.302Z,98.83
2023-05-05T23:12:32.777Z,98.33
2023-05-05T23:14:59.193Z,98.34
2023-05-05T23:17:25.760Z,99.47
2023-05-05T23:19:52.246Z,99.11
2023-05-05T23:22:18.687Z,99.34
2023-05-05T23:24:45.146Z,99.70
2023-05-05T23:27:12.454Z,100.00
2023-05-05T23:29:39.037Z,99.80
2023-05-05T23:32:05.816Z,99.21
2023-05-05T23:34:32.208Z,99.53
2023-05-05T23:36:58.606Z,100.00
2023-05-05T23:39:25.096Z,99.66
2023-05-05T23:41:51.473Z,99.18
2023-05-05T23:44:17.961Z,99.06
2023-05-05T23:46:44.396Z,99.08
2023-05-05T23:49:10.864Z,98.95
2023-05-05T23:51:37.308Z,98.96
2023-05-05T23:54:04.079Z,98.85
2023-05-05T23:56:30.581Z,100.00
2023-05-05T23:58:56.976Z,100.00
